createdAt,value
2018-05-14T00:01:17.004Z,13.10
2018-05-14T00:03:45.336Z,13.10
2018-05-14T00:06:12.780Z,13.00
2018-05-14T00:08:40.291Z,13.00
2018-05-14T00:11:08.582Z,12.80
2018-05-14T00:13:36.075Z,12.80
2018-05-14T00:16:03.584Z,12.80
2018-05-14T00:18:31.066Z,13.00
2018-05-14T00:20:58.568Z,13.00
2018-05-14T00:23:26.067Z,13.10
2018-05-14T00:25:54.348Z,13.00
2018-05-14T00:28:22.595Z,13.00
2018-05-14T00:30:50.107Z,13.00
2018-05-14T00:33:17.597Z,13.10
2018-05-14T00:35:45.105Z,13.10
2018-05-14T00:38:13.355Z,13.00
2018-05-14T00:40:40.879Z,13.00
2018-05-14T00:43:08.357Z,12.90
2018-05-14T00:45:35.852Z,13.00
2018-05-14T00:48:04.123Z,13.00
2018-05-14T00:50:32.385Z,13.20
2018-05-14T00:52:59.888Z,13.20
2018-05-14T00:55:27.372Z,13.20
2018-05-14T00:57:54.900Z,13.10
2018-05-14T01:00:22.391Z,13.00
2018-05-14T01:02:49.890Z,13.10
2018-05-14T01:05:17.396Z,13.20
2018-05-14T01:07:44.883Z,13.10
2018-05-14T01:10:12.395Z,12.90
2018-05-14T01:12:39.884Z,12.90
2018-05-14T01:15:07.388Z,12.90
2018-05-14T01:17:35.652Z,13.00
2018-05-14T01:20:03.167Z,12.90
2018-05-14T01:22:30.676Z,12.90
2018-05-14T01:25:03.062Z,12.80
2018-05-14T01:27:31.320Z,12.90
2018-05-14T01:29:58.826Z,12.90
2018-05-14T01:32:26.298Z,12.80
2018-05-14T01:34:53.810Z,12.70
2018-05-14T01:37:22.060Z,12.60
2018-05-14T01:39:49.596Z,12.60
2018-05-14T01:42:17.087Z,12.60
2018-05-14T01:44:44.582Z,12.60
2018-05-14T01:47:12.113Z,12.60
2018-05-14T01:49:39.605Z,12.60
2018-05-14T01:52:07.113Z,12.60
2018-05-14T01:54:34.626Z,12.60
2018-05-14T01:57:02.135Z,12.60
2018-05-14T01:59:29.623Z,12.60
2018-05-14T02:01:57.915Z,12.90
2018-05-14T02:04:25.398Z,12.80
2018-05-14T02:06:52.924Z,12.90
2018-05-14T02:09:21.180Z,12.80
2018-05-14T02:11:50.216Z,12.70
2018-05-14T02:14:17.703Z,12.70
2018-05-14T02:16:45.191Z,12.70
2018-05-14T02:19:12.713Z,12.80
2018-05-14T02:21:40.228Z,12.80
2018-05-14T02:24:08.503Z,12.80
2018-05-14T02:26:36.755Z,12.90
2018-05-14T02:29:04.252Z,12.90
2018-05-14T02:31:32.498Z,12.80
2018-05-14T02:34:00.120Z,12.80
2018-05-14T02:36:27.621Z,12.70
2018-05-14T02:38:55.233Z,12.90
2018-05-14T02:41:22.730Z,12.70
2018-05-14T02:43:50.239Z,12.80
2018-05-14T02:46:17.727Z,12.80
2018-05-14T02:48:45.232Z,12.90
2018-05-14T02:51:13.480Z,12.80
2018-05-14T02:53:40.995Z,12.80
2018-05-14T02:56:08.483Z,12.80
2018-05-14T02:58:35.996Z,12.80
2018-05-14T03:01:04.249Z,12.80
2018-05-14T03:03:31.759Z,12.70
2018-05-14T03:05:59.259Z,12.70
2018-05-14T03:08:26.762Z,12.90
2018-05-14T03:10:54.262Z,12.90
2018-05-14T03:13:21.748Z,12.70
2018-05-14T03:15:49.256Z,12.70
2018-05-14T03:18:16.744Z,12.80
2018-05-14T03:20:44.256Z,12.70
2018-05-14T03:23:11.744Z,12.70
2018-05-14T03:25:39.247Z,12.70
2018-05-14T03:28:07.504Z,12.60
2018-05-14T03:30:35.013Z,12.60
2018-05-14T03:33:02.524Z,12.80
2018-05-14T03:35:30.013Z,12.70
2018-05-14T03:37:58.344Z,12.70
2018-05-14T03:40:25.815Z,12.60
2018-05-14T03:42:53.349Z,12.70
2018-05-14T03:45:20.832Z,12.60
2018-05-14T03:47:48.338Z,12.60
2018-05-14T03:50:15.833Z,12.70
2018-05-14T03:52:43.355Z,12.70
2018-05-14T03:55:10.835Z,12.80
2018-05-14T03:57:38.353Z,12.90
2018-05-14T04:00:18.586Z,12.80
2018-05-14T04:02:58.133Z,12.80
2018-05-14T04:05:37.560Z,12.70
2018-05-14T04:08:05.090Z,12.70
2018-05-14T04:10:32.571Z,12.70
2018-05-14T04:13:00.094Z,12.80
2018-05-14T04:15:27.581Z,12.90
2018-05-14T04:17:55.101Z,12.90
2018-05-14T04:20:22.616Z,12.80
2018-05-14T04:22:50.098Z,12.80
2018-05-14T04:25:18.379Z,12.60
2018-05-14T04:27:46.701Z,12.60
2018-05-14T04:30:14.293Z,12.60
2018-05-14T04:32:42.479Z,12.60
2018-05-14T04:35:09.980Z,12.60
2018-05-14T04:37:37.467Z,12.60
2018-05-14T04:40:05.019Z,12.70
2018-05-14T04:42:32.518Z,12.60
2018-05-14T04:45:00.134Z,12.70
2018-05-14T04:47:27.622Z,12.60
2018-05-14T04:49:55.135Z,12.60
2018-05-14T04:52:22.626Z,12.60
2018-05-14T04:54:50.151Z,12.50
2018-05-14T04:57:17.642Z,12.60
2018-05-14T04:59:45.122Z,12.60
2018-05-14T05:02:12.643Z,12.70
2018-05-14T05:04:40.149Z,12.70
2018-05-14T05:07:07.667Z,12.70
2018-05-14T05:09:35.216Z,12.60
2018-05-14T05:12:02.726Z,12.60
2018-05-14T05:14:30.983Z,12.70
2018-05-14T05:16:58.609Z,12.70
2018-05-14T05:19:26.102Z,12.70
2018-05-14T05:21:53.619Z,12.60
2018-05-14T05:24:21.132Z,12.70
2018-05-14T05:26:48.682Z,12.70
2018-05-14T05:29:16.219Z,12.70
2018-05-14T05:31:43.762Z,12.70
2018-05-14T05:34:11.254Z,12.70
2018-05-14T05:36:38.788Z,12.80
2018-05-14T05:39:06.278Z,12.70
2018-05-14T05:41:33.788Z,12.80
2018-05-14T05:44:01.299Z,12.70
2018-05-14T05:46:28.788Z,12.70
2018-05-14T05:48:58.903Z,12.80
2018-05-14T05:51:26.387Z,12.70
2018-05-14T05:53:53.888Z,12.90
2018-05-14T05:56:21.371Z,12.90
2018-05-14T05:58:48.900Z,12.90
2018-05-14T06:01:16.400Z,13.00
2018-05-14T06:03:44.678Z,13.10
2018-05-14T06:06:12.172Z,13.10
2018-05-14T06:08:39.679Z,13.00
2018-05-14T06:11:07.163Z,13.00
2018-05-14T06:13:35.438Z,12.90
2018-05-14T06:16:03.678Z,13.00
2018-05-14T06:18:31.218Z,13.00
2018-05-14T06:20:58.703Z,13.00
2018-05-14T06:23:26.179Z,13.10
2018-05-14T06:25:53.709Z,13.10
2018-05-14T06:28:21.235Z,13.20
2018-05-14T06:30:49.480Z,13.10
2018-05-14T06:33:17.745Z,13.10
2018-05-14T06:35:45.327Z,13.10
2018-05-14T06:38:12.767Z,13.00
2018-05-14T06:40:40.268Z,13.00
2018-05-14T06:43:07.764Z,13.10
2018-05-14T06:45:35.267Z,13.00
2018-05-14T06:48:02.754Z,13.10
2018-05-14T06:50:30.263Z,13.10
2018-05-14T06:52:57.752Z,13.20
2018-05-14T06:55:25.331Z,13.30
2018-05-14T06:57:52.860Z,13.50
2018-05-14T07:00:21.104Z,13.70
2018-05-14T07:02:48.611Z,13.70
2018-05-14T07:05:16.096Z,13.70
2018-05-14T07:07:43.600Z,13.70
2018-05-14T07:10:11.856Z,14.00
2018-05-14T07:12:39.363Z,14.00
2018-05-14T07:15:06.846Z,14.00
2018-05-14T07:17:34.352Z,13.90
2018-05-14T07:20:01.857Z,14.00
2018-05-14T07:22:29.359Z,13.80
2018-05-14T07:24:56.846Z,13.90
2018-05-14T07:27:25.090Z,14.10
2018-05-14T07:29:52.586Z,14.00
2018-05-14T07:32:20.825Z,14.60
2018-05-14T07:34:48.329Z,14.60
2018-05-14T07:37:15.800Z,15.00
2018-05-14T07:39:43.315Z,15.20
2018-05-14T07:42:10.793Z,15.40
2018-05-14T07:44:39.062Z,15.40
2018-05-14T07:47:07.312Z,15.40
2018-05-14T07:49:34.831Z,15.40
2018-05-14T07:52:02.299Z,15.10
2018-05-14T07:54:29.956Z,14.90
2018-05-14T07:56:57.555Z,14.90
2018-05-14T07:59:25.045Z,14.70
2018-05-14T08:01:53.675Z,14.80
2018-05-14T08:04:21.160Z,14.70
2018-05-14T08:06:48.659Z,14.80
2018-05-14T08:09:16.116Z,14.90
2018-05-14T08:11:43.624Z,14.80
2018-05-14T08:14:11.044Z,14.80
2018-05-14T08:16:38.518Z,14.90
2018-05-14T08:19:05.975Z,14.90
2018-05-14T08:21:33.446Z,14.70
2018-05-14T08:24:00.901Z,14.50
2018-05-14T08:26:28.385Z,14.60
2018-05-14T08:28:55.842Z,14.70
2018-05-14T08:31:23.357Z,14.70
2018-05-14T08:33:50.783Z,14.50
2018-05-14T08:36:19.002Z,14.30
2018-05-14T08:38:46.584Z,14.30
2018-05-14T08:41:14.059Z,14.40
2018-05-14T08:43:41.524Z,14.30
2018-05-14T08:46:09.768Z,14.50
2018-05-14T08:48:37.239Z,14.40
2018-05-14T08:51:04.699Z,14.40
2018-05-14T08:53:32.173Z,14.50
2018-05-14T08:56:00.401Z,14.30
2018-05-14T08:58:27.983Z,14.30
2018-05-14T09:00:55.434Z,14.30
2018-05-14T09:03:22.894Z,14.20
2018-05-14T09:05:50.459Z,14.20
2018-05-14T09:08:17.942Z,14.30
2018-05-14T09:10:45.491Z,14.40
2018-05-14T09:13:13.048Z,14.40
2018-05-14T09:15:40.510Z,14.20
2018-05-14T09:18:07.970Z,14.00
2018-05-14T09:20:35.475Z,14.10
2018-05-14T09:23:03.041Z,14.10
2018-05-14T09:25:30.565Z,14.20
2018-05-14T09:27:58.051Z,14.20
2018-05-14T09:30:25.503Z,14.10
2018-05-14T09:32:53.003Z,14.10
2018-05-14T09:35:20.458Z,14.10
2018-05-14T09:37:47.992Z,14.10
2018-05-14T09:40:15.484Z,14.00
2018-05-14T09:42:43.053Z,13.90
2018-05-14T09:45:10.522Z,13.90
2018-05-14T09:47:38.775Z,13.90
2018-05-14T09:50:06.237Z,13.90
2018-05-14T09:52:33.723Z,13.90
2018-05-14T09:55:01.969Z,14.10
2018-05-14T09:57:29.447Z,14.10
2018-05-14T09:59:57.701Z,14.10
2018-05-14T10:02:25.161Z,14.10
2018-05-14T10:04:52.642Z,14.10
2018-05-14T10:07:20.869Z,14.40
2018-05-14T10:09:48.374Z,14.40
2018-05-14T10:12:16.647Z,14.80
2018-05-14T10:14:44.111Z,14.80
2018-05-14T10:17:11.581Z,14.80
2018-05-14T10:19:39.807Z,14.80
2018-05-14T10:22:07.307Z,14.80
2018-05-14T10:24:35.589Z,14.90
2018-05-14T10:27:03.835Z,15.20
2018-05-14T10:29:31.310Z,15.20
2018-05-14T10:31:58.770Z,15.00
2018-05-14T10:34:26.246Z,15.10
2018-05-14T10:36:54.615Z,15.20
2018-05-14T10:39:22.074Z,15.10
2018-05-14T10:41:50.299Z,15.00
2018-05-14T10:44:17.779Z,15.00
2018-05-14T10:46:45.274Z,14.80
2018-05-14T10:49:13.548Z,14.90
2018-05-14T10:51:40.994Z,14.80
2018-05-14T10:54:08.458Z,14.90
2018-05-14T10:56:36.722Z,15.00
2018-05-14T10:59:04.192Z,14.90
2018-05-14T11:01:32.468Z,14.90
2018-05-14T11:03:59.945Z,14.90
2018-05-14T11:06:27.407Z,14.90
2018-05-14T11:08:54.886Z,14.90
2018-05-14T11:11:22.363Z,15.10
2018-05-14T11:13:49.834Z,15.00
2018-05-14T11:16:17.316Z,15.30
2018-05-14T11:18:44.854Z,15.30
2018-05-14T11:21:12.334Z,15.40
2018-05-14T11:23:40.571Z,15.50
2018-05-14T11:26:08.033Z,15.50
2018-05-14T11:28:35.610Z,15.40
2018-05-14T11:31:03.083Z,15.50
2018-05-14T11:33:30.564Z,15.40
2018-05-14T11:35:58.802Z,15.20
2018-05-14T11:38:26.291Z,15.10
2018-05-14T11:40:54.517Z,14.90
2018-05-14T11:43:22.010Z,14.90
2018-05-14T11:45:49.482Z,15.00
2018-05-14T11:48:17.703Z,14.50
2018-05-14T11:50:45.265Z,14.50
2018-05-14T11:53:12.680Z,14.50
2018-05-14T11:55:40.933Z,14.70
2018-05-14T11:58:09.918Z,14.70
2018-05-14T12:00:37.378Z,14.70
2018-05-14T12:03:04.935Z,14.70
2018-05-14T12:05:33.120Z,14.60
2018-05-14T12:08:00.673Z,14.60
2018-05-14T12:10:28.154Z,14.80
2018-05-14T12:12:56.382Z,15.10
2018-05-14T12:15:23.855Z,15.10
2018-05-14T12:17:51.323Z,15.10
2018-05-14T12:20:18.885Z,15.20
2018-05-14T12:22:46.335Z,15.40
2018-05-14T12:25:13.814Z,15.70
2018-05-14T12:27:41.266Z,15.60
2018-05-14T12:30:08.750Z,15.50
2018-05-14T12:32:36.273Z,15.40
2018-05-14T12:35:03.765Z,15.80
2018-05-14T12:37:32.131Z,15.90
2018-05-14T12:39:59.600Z,15.90
2018-05-14T12:42:27.821Z,16.40
2018-05-14T12:44:55.314Z,16.40
2018-05-14T12:47:24.298Z,16.40
2018-05-14T12:49:53.256Z,16.70
2018-05-14T12:52:20.783Z,16.70
2018-05-14T12:54:49.000Z,16.70
2018-05-14T12:57:16.484Z,16.70
2018-05-14T12:59:43.942Z,16.80
2018-05-14T13:02:11.430Z,16.80
2018-05-14T13:04:39.678Z,17.00
2018-05-14T13:07:07.250Z,16.90
2018-05-14T13:09:34.695Z,16.90
2018-05-14T13:12:02.171Z,16.80
2018-05-14T13:14:30.399Z,16.80
2018-05-14T13:16:57.896Z,16.80
2018-05-14T13:19:25.351Z,16.70
2018-05-14T13:21:52.858Z,16.70
2018-05-14T13:24:20.332Z,16.70
2018-05-14T13:26:47.811Z,16.60
2018-05-14T13:29:15.350Z,16.70
2018-05-14T13:31:42.860Z,16.60
2018-05-14T13:34:10.322Z,16.80
2018-05-14T13:36:38.557Z,17.20
2018-05-14T13:39:06.043Z,17.20
2018-05-14T13:41:33.510Z,17.10
2018-05-14T13:44:01.747Z,16.70
2018-05-14T13:46:29.223Z,16.70
2018-05-14T13:48:56.691Z,16.70
2018-05-14T13:51:24.175Z,16.60
2018-05-14T13:53:52.445Z,16.70
2018-05-14T13:56:20.840Z,16.70
2018-05-14T13:58:48.379Z,16.70
2018-05-14T14:01:16.615Z,16.50
2018-05-14T14:03:44.107Z,16.50
2018-05-14T14:06:11.593Z,16.40
2018-05-14T14:08:39.047Z,16.60
2018-05-14T14:11:07.311Z,16.80
2018-05-14T14:13:34.845Z,16.90
2018-05-14T14:16:02.403Z,16.70
2018-05-14T14:18:29.863Z,16.60
2018-05-14T14:20:57.385Z,16.50
2018-05-14T14:23:25.094Z,16.30
2018-05-14T14:25:52.363Z,16.20
2018-05-14T14:28:20.616Z,16.10
2018-05-14T14:30:48.080Z,16.10
2018-05-14T14:33:15.546Z,16.10
2018-05-14T14:35:43.022Z,16.00
2018-05-14T14:38:11.262Z,16.00
2018-05-14T14:40:38.753Z,16.00
2018-05-14T14:43:07.011Z,16.20
2018-05-14T14:45:34.465Z,16.20
2018-05-14T14:48:01.967Z,16.50
2018-05-14T14:50:29.480Z,16.60
2018-05-14T14:52:56.965Z,16.80
2018-05-14T14:55:24.526Z,16.90
2018-05-14T14:57:52.821Z,16.80
2018-05-14T15:00:20.222Z,16.80
2018-05-14T15:02:47.707Z,16.70
2018-05-14T15:05:15.189Z,16.50
2018-05-14T15:07:42.651Z,16.40
2018-05-14T15:10:10.147Z,16.30
2018-05-14T15:12:37.610Z,16.10
2018-05-14T15:15:05.090Z,15.80
2018-05-14T15:17:32.542Z,15.80
2018-05-14T15:20:00.067Z,15.70
2018-05-14T15:22:27.587Z,15.80
2018-05-14T15:24:55.086Z,15.90
2018-05-14T15:27:22.641Z,15.90
2018-05-14T15:29:50.241Z,15.90
2018-05-14T15:32:17.618Z,15.80
2018-05-14T15:34:45.911Z,15.60
2018-05-14T15:37:14.159Z,15.40
2018-05-14T15:39:41.653Z,15.40
2018-05-14T15:42:09.117Z,15.40
2018-05-14T15:44:36.566Z,15.30
2018-05-14T15:47:04.064Z,15.30
2018-05-14T15:49:31.540Z,15.30
2018-05-14T15:51:59.148Z,15.40
2018-05-14T15:54:27.391Z,15.50
2018-05-14T15:56:54.858Z,15.40
2018-05-14T15:59:22.331Z,15.50
2018-05-14T16:01:49.847Z,15.40
2018-05-14T16:04:17.361Z,15.30
2018-05-14T16:06:44.841Z,15.30
2018-05-14T16:09:12.300Z,15.30
2018-05-14T16:11:39.785Z,15.40
2018-05-14T16:14:07.260Z,15.30
2018-05-14T16:16:34.737Z,15.20
2018-05-14T16:19:02.959Z,15.20
2018-05-14T16:21:33.063Z,15.30
2018-05-14T16:24:00.559Z,15.30
2018-05-14T16:26:28.023Z,15.30
2018-05-14T16:28:55.494Z,15.30
2018-05-14T16:31:23.739Z,15.30
2018-05-14T16:33:51.194Z,15.20
2018-05-14T16:36:18.657Z,15.30
2018-05-14T16:38:46.130Z,15.20
2018-05-14T16:41:13.590Z,15.30
2018-05-14T16:43:41.103Z,15.10
2018-05-14T16:46:08.590Z,15.10
2018-05-14T16:48:36.047Z,15.00
2018-05-14T16:51:03.509Z,15.00
2018-05-14T16:53:30.970Z,15.00
2018-05-14T16:55:58.466Z,14.80
2018-05-14T16:58:26.678Z,14.90
2018-05-14T17:00:54.164Z,14.90
2018-05-14T17:03:21.627Z,14.90
2018-05-14T17:05:49.107Z,15.00
2018-05-14T17:08:16.569Z,14.90
2018-05-14T17:10:44.034Z,14.80
2018-05-14T17:13:12.422Z,14.80
2018-05-14T17:15:40.669Z,14.80
2018-05-14T17:18:08.149Z,14.80
2018-05-14T17:20:36.384Z,14.70
2018-05-14T17:23:03.850Z,14.70
2018-05-14T17:25:31.337Z,14.70
2018-05-14T17:27:59.571Z,14.70
2018-05-14T17:30:27.023Z,14.70
2018-05-14T17:32:54.590Z,14.60
2018-05-14T17:35:22.821Z,14.70
2018-05-14T17:37:51.063Z,14.80
2018-05-14T17:40:18.549Z,14.80
2018-05-14T17:42:46.034Z,14.80
2018-05-14T17:45:13.538Z,14.80
2018-05-14T17:47:41.774Z,14.70
2018-05-14T17:50:09.282Z,14.70
2018-05-14T17:52:36.758Z,14.70
2018-05-14T17:55:04.242Z,14.70
2018-05-14T17:57:31.801Z,14.70
2018-05-14T17:59:59.442Z,14.50
2018-05-14T18:02:26.922Z,14.50
2018-05-14T18:04:54.428Z,14.40
2018-05-14T18:07:21.911Z,14.40
2018-05-14T18:09:50.137Z,14.40
2018-05-14T18:12:17.627Z,14.30
2018-05-14T18:14:45.100Z,14.50
2018-05-14T18:17:13.363Z,14.50
2018-05-14T18:19:46.422Z,14.50
2018-05-14T18:22:19.757Z,14.60
2018-05-14T18:24:51.221Z,14.50
2018-05-14T18:27:25.228Z,14.30
2018-05-14T18:29:54.317Z,14.20
2018-05-14T18:32:22.580Z,14.20
2018-05-14T18:34:56.018Z,14.20
2018-05-14T18:37:23.536Z,14.30
2018-05-14T18:39:51.019Z,14.30
2018-05-14T18:42:19.232Z,14.10
2018-05-14T18:44:46.765Z,14.00
2018-05-14T18:47:14.229Z,14.00
2018-05-14T18:49:41.746Z,13.90
2018-05-14T18:52:09.267Z,13.80
2018-05-14T18:54:37.497Z,13.60
2018-05-14T18:57:04.967Z,13.60
2018-05-14T18:59:33.204Z,13.50
2018-05-14T19:02:00.694Z,13.50
2018-05-14T19:04:28.146Z,13.40
2018-05-14T19:06:56.457Z,13.30
2018-05-14T19:09:23.916Z,13.30
2018-05-14T19:11:52.318Z,13.20
2018-05-14T19:14:21.247Z,13.10
2018-05-14T19:16:54.290Z,13.10
2018-05-14T19:19:21.751Z,13.10
2018-05-14T19:21:49.249Z,13.00
2018-05-14T19:24:17.509Z,13.00
2018-05-14T19:26:45.031Z,13.00
2018-05-14T19:29:18.141Z,13.00
2018-05-14T19:31:45.622Z,13.00
2018-05-14T19:34:18.851Z,13.00
2018-05-14T19:36:47.127Z,13.00
2018-05-14T19:39:21.176Z,13.00
2018-05-14T19:41:48.667Z,13.00
2018-05-14T19:44:16.143Z,13.00
2018-05-14T19:46:44.371Z,13.00
2018-05-14T19:49:11.933Z,13.00
2018-05-14T19:51:39.333Z,13.00
2018-05-14T19:54:06.888Z,13.00
2018-05-14T19:56:34.356Z,13.10
2018-05-14T19:59:02.621Z,13.10
2018-05-14T20:01:30.095Z,13.10
2018-05-14T20:03:58.362Z,13.30
2018-05-14T20:06:25.838Z,13.30
2018-05-14T20:08:53.347Z,13.30
2018-05-14T20:11:20.818Z,13.20
2018-05-14T20:13:48.450Z,13.20
2018-05-14T20:16:15.934Z,13.20
2018-05-14T20:18:43.406Z,13.20
2018-05-14T20:21:10.911Z,13.30
2018-05-14T20:23:38.417Z,13.30
2018-05-14T20:26:05.909Z,13.30
2018-05-14T20:28:33.375Z,13.30
2018-05-14T20:31:01.637Z,13.30
2018-05-14T20:33:29.200Z,13.30
2018-05-14T20:35:57.463Z,13.30
2018-05-14T20:38:24.915Z,13.30
2018-05-14T20:40:52.402Z,13.40
2018-05-14T20:43:19.880Z,13.40
2018-05-14T20:45:47.496Z,13.60
2018-05-14T20:48:14.982Z,13.60
2018-05-14T20:50:43.251Z,13.50
2018-05-14T20:53:10.727Z,13.50
2018-05-14T20:55:38.196Z,13.60
2018-05-14T20:58:05.683Z,13.50
2018-05-14T21:00:33.158Z,13.40
2018-05-14T21:03:00.636Z,13.40
2018-05-14T21:05:28.251Z,13.40
2018-05-14T21:07:57.752Z,13.40
2018-05-14T21:10:25.210Z,13.30
2018-05-14T21:12:52.742Z,13.40
2018-05-14T21:15:20.981Z,13.40
2018-05-14T21:17:48.511Z,13.40
2018-05-14T21:20:15.985Z,13.40
2018-05-14T21:22:43.476Z,13.50
2018-05-14T21:25:11.702Z,13.50
2018-05-14T21:27:39.187Z,13.50
2018-05-14T21:30:06.662Z,13.50
2018-05-14T21:32:34.155Z,13.50
2018-05-14T21:35:01.636Z,13.60
2018-05-14T21:37:29.157Z,13.60
2018-05-14T21:39:57.399Z,13.60
2018-05-14T21:42:24.891Z,13.60
2018-05-14T21:44:52.383Z,13.60
2018-05-14T21:47:19.874Z,13.60
2018-05-14T21:49:47.371Z,13.50
2018-05-14T21:52:14.839Z,13.50
2018-05-14T21:54:42.428Z,13.50
2018-05-14T21:57:10.064Z,13.30
2018-05-14T21:59:37.580Z,13.30
2018-05-14T22:02:05.169Z,13.40
2018-05-14T22:04:32.661Z,13.40
2018-05-14T22:07:00.143Z,13.40
2018-05-14T22:09:27.722Z,13.30
2018-05-14T22:11:55.202Z,13.30
2018-05-14T22:14:23.467Z,13.30
2018-05-14T22:16:50.943Z,13.20
2018-05-14T22:19:18.478Z,13.30
2018-05-14T22:21:46.738Z,13.40
2018-05-14T22:24:14.239Z,13.30
2018-05-14T22:26:41.795Z,13.30
2018-05-14T22:29:09.228Z,13.20
2018-05-14T22:31:36.779Z,13.20
2018-05-14T22:34:04.248Z,13.20
2018-05-14T22:36:31.804Z,13.10
2018-05-14T22:38:59.354Z,13.10
2018-05-14T22:41:26.922Z,13.00
2018-05-14T22:43:54.399Z,13.00
2018-05-14T22:46:22.636Z,12.90
2018-05-14T22:48:50.125Z,12.90
2018-05-14T22:51:18.390Z,13.00
2018-05-14T22:53:45.856Z,13.00
2018-05-14T22:56:13.410Z,13.00
2018-05-14T22:58:40.901Z,12.90
2018-05-14T23:01:08.364Z,12.90
2018-05-14T23:03:35.879Z,13.10
2018-05-14T23:06:03.335Z,13.00
2018-05-14T23:08:30.894Z,12.80
2018-05-14T23:10:58.397Z,12.80
2018-05-14T23:13:25.874Z,12.90
2018-05-14T23:15:53.354Z,12.90
2018-05-14T23:18:20.815Z,12.90
2018-05-14T23:20:48.299Z,12.90
2018-05-14T23:23:15.754Z,13.00
2018-05-14T23:25:43.239Z,13.10
2018-05-14T23:28:11.470Z,13.00
2018-05-14T23:30:38.966Z,13.00
2018-05-14T23:33:07.205Z,13.00
2018-05-14T23:35:34.686Z,13.00
2018-05-14T23:38:02.149Z,13.00
2018-05-14T23:40:30.414Z,12.90
2018-05-14T23:42:57.897Z,12.80
2018-05-14T23:45:26.123Z,12.90
2018-05-14T23:47:53.599Z,12.80
2018-05-14T23:50:21.167Z,12.80
2018-05-14T23:52:48.656Z,12.80
2018-05-14T23:55:16.883Z,12.80
2018-05-14T23:57:44.460Z,12.80
